createdAt,value
2024-03-03T00:00:44.643Z,9.10
2024-03-03T00:03:11.375Z,9.00
2024-03-03T00:05:38.193Z,8.90
2024-03-03T00:08:05.258Z,9.00
2024-03-03T00:10:32.732Z,9.00
2024-03-03T00:12:59.509Z,9.00
2024-03-03T00:15:26.274Z,9.00
2024-03-03T00:17:53.159Z,9.00
2024-03-03T00:20:19.974Z,8.80
2024-03-03T00:22:46.728Z,8.70
2024-03-03T00:25:13.702Z,8.70
2024-03-03T00:27:40.860Z,8.60
2024-03-03T00:30:08.031Z,8.70
2024-03-03T00:32:34.724Z,8.60
2024-03-03T00:35:01.653Z,8.50
2024-03-03T00:37:28.401Z,8.50
2024-03-03T00:39:55.129Z,8.50
2024-03-03T00:42:21.844Z,8.60
2024-03-03T00:44:48.537Z,8.60
2024-03-03T00:47:15.312Z,8.60
2024-03-03T00:49:41.963Z,8.60
2024-03-03T00:52:08.955Z,8.50
2024-03-03T00:54:35.719Z,8.40
2024-03-03T00:57:04.980Z,8.40
2024-03-03T00:59:31.710Z,8.40
2024-03-03T01:01:58.441Z,8.50
2024-03-03T01:04:25.242Z,8.40
2024-03-03T01:06:52.151Z,8.40
2024-03-03T01:09:19.205Z,8.40
2024-03-03T01:11:47.085Z,8.40
2024-03-03T01:14:13.967Z,8.40
2024-03-03T01:16:40.684Z,8.40
2024-03-03T01:19:07.502Z,8.40
2024-03-03T01:21:34.250Z,8.50
2024-03-03T01:24:01.067Z,8.50
2024-03-03T01:26:27.773Z,8.50
2024-03-03T01:28:54.418Z,8.40
2024-03-03T01:31:21.126Z,8.50
2024-03-03T01:33:47.892Z,8.50
2024-03-03T01:36:14.734Z,8.50
2024-03-03T01:38:41.836Z,8.40
2024-03-03T01:41:08.990Z,8.40
2024-03-03T01:43:36.098Z,8.40
2024-03-03T01:46:03.217Z,8.30
2024-03-03T01:48:30.607Z,8.30
2024-03-03T01:50:58.739Z,8.20
2024-03-03T01:53:25.858Z,8.20
2024-03-03T01:55:52.670Z,8.40
2024-03-03T01:58:20.067Z,8.40
2024-03-03T02:00:49.989Z,8.30
2024-03-03T02:03:17.999Z,8.30
2024-03-03T02:05:44.770Z,8.20
2024-03-03T02:08:11.984Z,8.00
2024-03-03T02:10:39.544Z,8.00
2024-03-03T02:13:06.553Z,7.80
2024-03-03T02:15:33.353Z,7.80
2024-03-03T02:18:00.078Z,7.90
2024-03-03T02:20:28.900Z,7.80
2024-03-03T02:22:55.814Z,7.80
2024-03-03T02:25:23.006Z,7.90
2024-03-03T02:27:49.909Z,7.80
2024-03-03T02:30:16.891Z,7.80
2024-03-03T02:32:43.606Z,7.70
2024-03-03T02:35:10.596Z,7.60
2024-03-03T02:37:37.247Z,7.60
2024-03-03T02:40:04.645Z,7.60
2024-03-03T02:42:33.339Z,7.70
2024-03-03T02:45:01.431Z,7.60
2024-03-03T02:47:28.574Z,7.60
2024-03-03T02:49:55.372Z,7.60
2024-03-03T02:52:22.380Z,7.60
2024-03-03T02:54:49.470Z,7.50
2024-03-03T02:57:16.220Z,7.50
2024-03-03T02:59:42.930Z,7.50
2024-03-03T03:02:09.686Z,7.40
2024-03-03T03:04:36.353Z,7.40
2024-03-03T03:07:03.093Z,7.50
2024-03-03T03:09:29.794Z,7.40
2024-03-03T03:11:56.463Z,7.30
2024-03-03T03:14:25.247Z,7.30
2024-03-03T03:16:52.041Z,7.20
2024-03-03T03:19:18.924Z,7.20
2024-03-03T03:21:45.652Z,7.20
2024-03-03T03:24:12.387Z,7.20
2024-03-03T03:26:39.084Z,7.30
2024-03-03T03:29:05.840Z,7.30
2024-03-03T03:31:32.510Z,7.40
2024-03-03T03:33:59.342Z,7.40
2024-03-03T03:36:26.119Z,7.40
2024-03-03T03:38:53.041Z,7.40
2024-03-03T03:41:21.125Z,7.40
2024-03-03T03:43:48.273Z,7.40
2024-03-03T03:46:15.021Z,7.50
2024-03-03T03:48:41.914Z,7.60
2024-03-03T03:51:09.037Z,7.70
2024-03-03T03:53:35.795Z,7.70
2024-03-03T03:56:02.505Z,7.70
2024-03-03T03:58:29.180Z,7.70
2024-03-03T04:00:56.117Z,7.70
2024-03-03T04:03:22.845Z,7.70
2024-03-03T04:05:49.584Z,7.70
2024-03-03T04:08:16.234Z,7.70
2024-03-03T04:10:43.064Z,7.70
2024-03-03T04:13:09.865Z,7.70
2024-03-03T04:15:36.579Z,7.60
2024-03-03T04:18:03.376Z,7.60
2024-03-03T04:20:30.106Z,7.60
2024-03-03T04:22:56.816Z,7.50
2024-03-03T04:25:23.531Z,7.40
2024-03-03T04:27:50.239Z,7.40
2024-03-03T04:30:16.943Z,7.40
2024-03-03T04:32:43.632Z,7.40
2024-03-03T04:35:10.361Z,7.20
2024-03-03T04:37:37.010Z,7.00
2024-03-03T04:40:04.839Z,7.00
2024-03-03T04:42:31.873Z,6.90
2024-03-03T04:44:58.543Z,6.80
2024-03-03T04:47:25.658Z,6.80
2024-03-03T04:49:52.418Z,6.70
2024-03-03T04:52:19.325Z,6.70
2024-03-03T04:54:46.320Z,6.80
2024-03-03T04:57:13.055Z,6.90
2024-03-03T04:59:39.710Z,6.90
2024-03-03T05:02:06.471Z,6.90
2024-03-03T05:04:33.380Z,6.90
2024-03-03T05:07:00.756Z,6.90
2024-03-03T05:09:27.524Z,7.00
2024-03-03T05:11:54.207Z,7.00
2024-03-03T05:14:20.917Z,7.00
2024-03-03T05:16:47.696Z,6.90
2024-03-03T05:19:14.560Z,6.70
2024-03-03T05:21:41.348Z,6.60
2024-03-03T05:24:08.030Z,6.60
2024-03-03T05:26:34.779Z,6.60
2024-03-03T05:29:03.569Z,6.60
2024-03-03T05:31:40.430Z,6.60
2024-03-03T05:34:07.152Z,6.70
2024-03-03T05:36:35.008Z,6.80
2024-03-03T05:39:01.739Z,6.90
2024-03-03T05:41:28.498Z,6.90
2024-03-03T05:43:55.204Z,6.90
2024-03-03T05:46:22.032Z,6.90
2024-03-03T05:48:48.828Z,6.90
2024-03-03T05:51:17.126Z,7.00
2024-03-03T05:53:44.087Z,7.00
2024-03-03T05:56:15.152Z,7.00
2024-03-03T05:58:42.525Z,7.00
2024-03-03T06:01:09.341Z,7.00
2024-03-03T06:03:36.437Z,6.90
2024-03-03T06:06:03.837Z,6.90
2024-03-03T06:08:31.009Z,6.80
2024-03-03T06:10:57.764Z,6.80
2024-03-03T06:13:24.582Z,6.70
2024-03-03T06:15:51.352Z,6.60
2024-03-03T06:18:18.081Z,6.60
2024-03-03T06:20:44.764Z,6.50
2024-03-03T06:23:11.692Z,6.50
2024-03-03T06:25:38.352Z,6.50
2024-03-03T06:28:05.298Z,6.50
2024-03-03T06:30:31.977Z,6.60
2024-03-03T06:32:58.641Z,6.60
2024-03-03T06:35:25.359Z,6.60
2024-03-03T06:37:52.408Z,6.60
2024-03-03T06:40:19.324Z,6.50
2024-03-03T06:42:46.259Z,6.50
2024-03-03T06:45:12.995Z,6.50
2024-03-03T06:47:39.720Z,6.50
2024-03-03T06:50:07.015Z,6.50
2024-03-03T06:52:33.759Z,6.30
2024-03-03T06:55:00.995Z,6.20
2024-03-03T06:57:28.021Z,6.30
2024-03-03T06:59:54.982Z,6.40
2024-03-03T07:02:21.809Z,6.30
2024-03-03T07:04:48.532Z,6.40
2024-03-03T07:07:15.247Z,6.40
2024-03-03T07:09:42.069Z,6.40
2024-03-03T07:12:08.979Z,6.50
2024-03-03T07:14:37.392Z,6.60
2024-03-03T07:17:04.270Z,6.80
2024-03-03T07:19:31.043Z,7.00
2024-03-03T07:21:57.950Z,7.20
2024-03-03T07:24:25.223Z,7.30
2024-03-03T07:26:52.164Z,7.40
2024-03-03T07:29:18.967Z,7.50
2024-03-03T07:31:45.657Z,7.70
2024-03-03T07:34:12.405Z,7.80
2024-03-03T07:36:39.158Z,7.90
2024-03-03T07:39:07.064Z,8.10
2024-03-03T07:41:33.740Z,8.20
2024-03-03T07:44:00.538Z,8.30
2024-03-03T07:46:27.325Z,8.30
2024-03-03T07:48:54.210Z,8.30
2024-03-03T07:51:22.927Z,8.30
2024-03-03T07:53:49.710Z,8.30
2024-03-03T07:56:16.992Z,8.40
2024-03-03T07:58:44.075Z,8.40
2024-03-03T08:01:11.617Z,8.50
2024-03-03T08:03:38.376Z,8.60
2024-03-03T08:06:05.415Z,8.90
2024-03-03T08:08:32.242Z,8.90
2024-03-03T08:10:58.940Z,8.90
2024-03-03T08:13:26.096Z,9.10
2024-03-03T08:15:52.916Z,9.10
2024-03-03T08:18:19.760Z,9.20
2024-03-03T08:20:46.957Z,9.30
2024-03-03T08:23:15.647Z,9.30
2024-03-03T08:25:42.371Z,9.40
2024-03-03T08:28:09.907Z,9.50
2024-03-03T08:30:39.310Z,9.60
2024-03-03T08:33:06.217Z,9.60
2024-03-03T08:35:33.073Z,9.80
2024-03-03T08:37:59.894Z,9.90
2024-03-03T08:40:26.783Z,9.90
2024-03-03T08:42:55.504Z,10.00
2024-03-03T08:45:22.334Z,10.00
2024-03-03T08:47:49.219Z,10.10
2024-03-03T08:50:16.228Z,10.10
2024-03-03T08:52:43.157Z,10.10
2024-03-03T08:55:10.024Z,10.20
2024-03-03T08:57:36.818Z,10.20
2024-03-03T09:00:04.859Z,10.30
2024-03-03T09:02:31.787Z,10.30
2024-03-03T09:04:58.663Z,10.40
2024-03-03T09:07:25.480Z,10.60
2024-03-03T09:09:52.372Z,10.60
2024-03-03T09:12:19.272Z,10.70
2024-03-03T09:14:46.155Z,10.80
2024-03-03T09:17:12.982Z,10.80
2024-03-03T09:19:39.794Z,11.00
2024-03-03T09:22:06.701Z,11.00
2024-03-03T09:24:33.581Z,11.10
2024-03-03T09:27:00.519Z,11.20
2024-03-03T09:29:27.387Z,11.40
2024-03-03T09:31:54.458Z,11.50
2024-03-03T09:34:21.338Z,11.60
2024-03-03T09:36:48.253Z,11.80
2024-03-03T09:39:14.998Z,11.90
2024-03-03T09:41:43.187Z,12.00
2024-03-03T09:44:12.154Z,12.00
2024-03-03T09:46:41.436Z,12.20
2024-03-03T09:49:21.767Z,12.30
2024-03-03T09:51:49.924Z,12.40
2024-03-03T09:54:19.474Z,12.50
2024-03-03T09:56:47.629Z,12.50
2024-03-03T09:59:16.112Z,12.60
2024-03-03T10:01:54.405Z,12.60
2024-03-03T10:04:23.421Z,12.70
2024-03-03T10:06:56.371Z,12.80
2024-03-03T10:09:26.371Z,13.00
2024-03-03T10:11:56.283Z,13.00
2024-03-03T10:14:25.541Z,13.00
2024-03-03T10:16:52.346Z,13.00
2024-03-03T10:19:19.964Z,13.20
2024-03-03T10:21:48.838Z,13.50
2024-03-03T10:24:22.459Z,13.50
2024-03-03T10:26:50.518Z,13.60
2024-03-03T10:29:28.958Z,13.80
2024-03-03T10:31:56.695Z,13.90
2024-03-03T10:34:24.384Z,13.80
2024-03-03T10:37:05.282Z,13.80
2024-03-03T10:39:37.223Z,14.00
2024-03-03T10:42:11.539Z,14.10
2024-03-03T10:44:38.993Z,14.00
2024-03-03T10:47:09.317Z,14.10
2024-03-03T10:49:36.030Z,14.10
2024-03-03T10:52:02.924Z,14.10
2024-03-03T10:54:31.604Z,14.20
2024-03-03T10:57:00.428Z,14.20
2024-03-03T10:59:31.078Z,14.30
2024-03-03T11:02:01.067Z,14.20
2024-03-03T11:04:31.786Z,14.20
2024-03-03T11:07:06.216Z,14.30
2024-03-03T11:09:34.675Z,14.30
2024-03-03T11:12:06.429Z,14.40
2024-03-03T11:14:42.130Z,14.60
2024-03-03T11:17:21.323Z,14.70
2024-03-03T11:19:51.869Z,14.80
2024-03-03T11:22:23.264Z,14.90
2024-03-03T11:25:16.948Z,14.90
2024-03-03T11:27:47.284Z,15.00
2024-03-03T11:30:16.022Z,15.10
2024-03-03T11:32:44.604Z,15.30
2024-03-03T11:35:11.688Z,15.40
2024-03-03T11:37:38.697Z,15.40
2024-03-03T11:40:06.214Z,15.50
2024-03-03T11:42:33.450Z,15.40
2024-03-03T11:45:04.511Z,15.50
2024-03-03T11:47:35.813Z,15.50
2024-03-03T11:50:21.121Z,15.60
2024-03-03T11:52:49.165Z,15.70
2024-03-03T11:55:22.955Z,15.70
2024-03-03T11:58:03.003Z,15.60
2024-03-03T12:00:31.567Z,15.60
2024-03-03T12:03:00.318Z,15.80
2024-03-03T12:05:27.960Z,16.00
2024-03-03T12:07:56.406Z,16.00
2024-03-03T12:10:28.257Z,16.20
2024-03-03T12:12:59.955Z,16.20
2024-03-03T12:15:28.773Z,16.20
2024-03-03T12:18:00.316Z,16.50
2024-03-03T12:20:29.622Z,16.30
2024-03-03T12:22:57.278Z,16.30
2024-03-03T12:25:25.784Z,16.30
2024-03-03T12:27:55.141Z,16.30
2024-03-03T12:30:23.554Z,16.30
2024-03-03T12:32:51.845Z,16.40
2024-03-03T12:35:18.966Z,16.50
2024-03-03T12:37:45.843Z,16.60
2024-03-03T12:40:14.096Z,16.50
2024-03-03T12:42:41.131Z,16.60
2024-03-03T12:45:11.368Z,16.70
2024-03-03T12:47:40.771Z,16.80
2024-03-03T12:50:13.214Z,16.90
2024-03-03T12:52:42.033Z,17.00
2024-03-03T12:55:12.174Z,17.00
2024-03-03T12:57:40.484Z,17.00
2024-03-03T13:00:08.884Z,17.00
2024-03-03T13:02:35.757Z,17.00
2024-03-03T13:05:04.179Z,17.20
2024-03-03T13:07:31.018Z,17.30
2024-03-03T13:09:57.897Z,17.40
2024-03-03T13:12:26.330Z,17.40
2024-03-03T13:14:56.531Z,17.40
2024-03-03T13:17:24.437Z,17.40
2024-03-03T13:19:52.600Z,17.40
2024-03-03T13:22:20.465Z,17.40
2024-03-03T13:24:54.326Z,17.40
2024-03-03T13:27:22.417Z,17.50
2024-03-03T13:29:49.540Z,17.50
2024-03-03T13:32:16.450Z,17.50
2024-03-03T13:34:43.743Z,17.50
2024-03-03T13:37:11.043Z,17.40
2024-03-03T13:39:38.083Z,17.40
2024-03-03T13:42:10.521Z,17.40
2024-03-03T13:44:46.501Z,17.30
2024-03-03T13:47:15.208Z,17.30
2024-03-03T13:49:42.385Z,17.30
2024-03-03T13:52:13.146Z,17.30
2024-03-03T13:54:41.460Z,17.40
2024-03-03T13:57:08.292Z,17.40
2024-03-03T13:59:35.306Z,17.50
2024-03-03T14:02:02.121Z,17.40
2024-03-03T14:04:29.185Z,17.40
2024-03-03T14:06:58.259Z,17.40
2024-03-03T14:09:25.291Z,17.40
2024-03-03T14:11:52.313Z,17.20
2024-03-03T14:14:19.136Z,17.30
2024-03-03T14:16:46.047Z,17.20
2024-03-03T14:19:12.850Z,17.30
2024-03-03T14:21:39.757Z,17.30
2024-03-03T14:24:06.760Z,17.50
2024-03-03T14:26:33.642Z,17.50
2024-03-03T14:29:00.600Z,17.60
2024-03-03T14:31:28.199Z,17.70
2024-03-03T14:33:55.051Z,17.70
2024-03-03T14:36:24.297Z,17.80
2024-03-03T14:38:51.974Z,17.90
2024-03-03T14:41:18.829Z,18.00
2024-03-03T14:43:46.558Z,18.00
2024-03-03T14:46:14.463Z,17.90
2024-03-03T14:48:41.187Z,17.90
2024-03-03T14:51:07.934Z,17.80
2024-03-03T14:53:35.968Z,17.90
2024-03-03T14:56:06.092Z,18.00
2024-03-03T14:58:32.907Z,18.00
2024-03-03T15:00:59.943Z,17.90
2024-03-03T15:03:29.285Z,17.90
2024-03-03T15:05:58.049Z,17.90
2024-03-03T15:08:25.619Z,17.90
2024-03-03T15:10:52.681Z,17.90
2024-03-03T15:13:19.488Z,17.90
2024-03-03T15:15:46.493Z,17.80
2024-03-03T15:18:14.277Z,17.80
2024-03-03T15:20:41.286Z,17.90
2024-03-03T15:23:08.065Z,17.90
2024-03-03T15:25:34.932Z,17.90
2024-03-03T15:28:01.766Z,17.90
2024-03-03T15:30:29.424Z,17.90
2024-03-03T15:32:58.871Z,17.80
2024-03-03T15:35:26.456Z,17.80
2024-03-03T15:37:53.253Z,17.80
2024-03-03T15:40:21.117Z,17.70
2024-03-03T15:42:48.094Z,17.60
2024-03-03T15:45:14.963Z,17.50
2024-03-03T15:47:42.201Z,17.30
2024-03-03T15:50:09.512Z,17.20
2024-03-03T15:52:38.189Z,17.20
2024-03-03T15:55:08.474Z,17.20
2024-03-03T15:57:36.055Z,17.20
2024-03-03T16:00:02.843Z,17.20
2024-03-03T16:02:29.640Z,17.20
2024-03-03T16:04:56.384Z,17.40
2024-03-03T16:07:23.992Z,17.50
2024-03-03T16:09:53.775Z,17.50
2024-03-03T16:12:20.590Z,17.50
2024-03-03T16:14:47.413Z,17.40
2024-03-03T16:17:14.779Z,17.30
2024-03-03T16:19:43.255Z,17.40
2024-03-03T16:22:11.308Z,17.40
2024-03-03T16:24:38.148Z,17.50
2024-03-03T16:27:06.438Z,17.50
2024-03-03T16:29:33.920Z,17.50
2024-03-03T16:32:00.990Z,17.50
2024-03-03T16:34:27.913Z,17.50
2024-03-03T16:36:54.765Z,17.50
2024-03-03T16:39:21.538Z,17.40
2024-03-03T16:41:48.365Z,17.30
2024-03-03T16:44:15.089Z,17.20
2024-03-03T16:46:42.363Z,17.30
2024-03-03T16:49:09.201Z,17.30
2024-03-03T16:51:36.056Z,17.30
2024-03-03T16:54:03.920Z,17.20
2024-03-03T16:56:30.743Z,17.20
2024-03-03T16:58:57.635Z,17.10
2024-03-03T17:01:25.480Z,17.10
2024-03-03T17:03:52.438Z,17.10
2024-03-03T17:06:20.571Z,17.00
2024-03-03T17:08:47.621Z,16.90
2024-03-03T17:11:14.879Z,16.80
2024-03-03T17:13:41.661Z,16.70
2024-03-03T17:16:08.737Z,16.60
2024-03-03T17:18:35.634Z,16.50
2024-03-03T17:21:05.838Z,16.40
2024-03-03T17:23:32.836Z,16.30
2024-03-03T17:26:00.142Z,16.20
2024-03-03T17:28:26.953Z,16.10
2024-03-03T17:30:54.649Z,16.10
2024-03-03T17:33:21.521Z,16.00
2024-03-03T17:35:49.037Z,16.00
2024-03-03T17:38:15.862Z,15.90
2024-03-03T17:40:42.725Z,15.80
2024-03-03T17:43:09.490Z,15.70
2024-03-03T17:45:36.323Z,15.70
2024-03-03T17:48:03.361Z,15.60
2024-03-03T17:50:30.155Z,15.60
2024-03-03T17:52:56.966Z,15.70
2024-03-03T17:55:23.811Z,15.60
2024-03-03T17:57:50.673Z,15.50
2024-03-03T18:00:18.206Z,15.40
2024-03-03T18:02:46.034Z,15.20
2024-03-03T18:05:13.085Z,15.20
2024-03-03T18:07:40.490Z,15.10
2024-03-03T18:10:08.476Z,15.00
2024-03-03T18:12:35.286Z,14.90
2024-03-03T18:15:02.111Z,14.90
2024-03-03T18:17:29.823Z,15.00
2024-03-03T18:19:56.628Z,15.00
2024-03-03T18:22:25.567Z,14.90
2024-03-03T18:24:52.475Z,14.80
2024-03-03T18:27:19.260Z,14.80
2024-03-03T18:29:46.348Z,14.70
2024-03-03T18:32:13.177Z,14.70
2024-03-03T18:34:40.071Z,14.70
2024-03-03T18:37:06.866Z,14.60
2024-03-03T18:39:33.623Z,14.50
2024-03-03T18:42:00.407Z,14.40
2024-03-03T18:44:27.100Z,14.30
2024-03-03T18:46:53.962Z,14.40
2024-03-03T18:49:20.760Z,14.40
2024-03-03T18:51:48.664Z,14.40
2024-03-03T18:54:15.485Z,14.20
2024-03-03T18:56:42.502Z,14.10
2024-03-03T18:59:10.429Z,13.90
2024-03-03T19:01:37.452Z,13.80
2024-03-03T19:04:04.464Z,13.80
2024-03-03T19:06:31.443Z,13.70
2024-03-03T19:08:58.360Z,13.70
2024-03-03T19:11:25.237Z,13.90
2024-03-03T19:13:52.203Z,13.70
2024-03-03T19:16:19.109Z,13.80
2024-03-03T19:18:46.828Z,13.70
2024-03-03T19:21:15.806Z,13.70
2024-03-03T19:23:42.677Z,13.60
2024-03-03T19:26:09.655Z,13.60
2024-03-03T19:28:36.527Z,13.60
2024-03-03T19:31:04.768Z,13.50
2024-03-03T19:33:31.683Z,13.40
2024-03-03T19:35:58.466Z,13.20
2024-03-03T19:38:25.308Z,13.20
2024-03-03T19:40:53.666Z,13.10
2024-03-03T19:43:20.725Z,13.10
2024-03-03T19:45:47.773Z,13.10
2024-03-03T19:48:14.613Z,13.10
2024-03-03T19:50:43.469Z,13.10
2024-03-03T19:53:11.092Z,13.20
2024-03-03T19:55:37.918Z,13.10
2024-03-03T19:58:04.831Z,13.10
2024-03-03T20:00:31.654Z,13.10
2024-03-03T20:02:58.504Z,13.10
2024-03-03T20:05:25.252Z,13.00
2024-03-03T20:07:52.062Z,13.00
2024-03-03T20:10:20.385Z,12.90
2024-03-03T20:12:47.177Z,12.80
2024-03-03T20:15:14.291Z,12.90
2024-03-03T20:17:41.196Z,12.80
2024-03-03T20:20:10.931Z,12.50
2024-03-03T20:22:38.207Z,12.40
2024-03-03T20:25:05.793Z,12.20
2024-03-03T20:27:32.999Z,12.20
2024-03-03T20:29:59.896Z,12.20
2024-03-03T20:32:27.615Z,12.10
2024-03-03T20:34:57.680Z,12.10
2024-03-03T20:37:25.260Z,12.10
2024-03-03T20:39:52.876Z,12.20
2024-03-03T20:42:20.462Z,12.10
2024-03-03T20:44:48.191Z,12.10
2024-03-03T20:47:15.163Z,12.00
2024-03-03T20:49:42.110Z,11.90
2024-03-03T20:52:09.054Z,11.80
2024-03-03T20:54:36.367Z,11.70
2024-03-03T20:57:09.261Z,11.80
2024-03-03T20:59:36.826Z,11.80
2024-03-03T21:02:05.454Z,11.70
2024-03-03T21:04:34.790Z,11.70
2024-03-03T21:07:03.748Z,11.60
2024-03-03T21:09:30.696Z,11.60
2024-03-03T21:11:57.644Z,11.60
2024-03-03T21:14:26.403Z,11.70
2024-03-03T21:16:53.433Z,11.60
2024-03-03T21:19:20.325Z,11.50
2024-03-03T21:21:47.126Z,11.50
2024-03-03T21:24:13.942Z,11.50
2024-03-03T21:26:47.407Z,11.40
2024-03-03T21:29:14.337Z,11.40
2024-03-03T21:31:41.305Z,11.30
2024-03-03T21:34:08.187Z,11.20
2024-03-03T21:36:35.886Z,11.20
2024-03-03T21:39:03.080Z,11.20
2024-03-03T21:41:29.882Z,11.10
2024-03-03T21:43:56.607Z,11.00
2024-03-03T21:46:23.553Z,10.90
2024-03-03T21:48:50.353Z,10.40
2024-03-03T21:51:17.160Z,9.90
2024-03-03T21:53:44.041Z,9.70
2024-03-03T21:56:10.818Z,9.80
2024-03-03T21:58:41.289Z,9.90
2024-03-03T22:01:08.773Z,10.10
2024-03-03T22:03:35.589Z,10.20
2024-03-03T22:06:02.354Z,10.40
2024-03-03T22:08:29.111Z,10.30
2024-03-03T22:10:56.035Z,10.30
2024-03-03T22:13:22.908Z,10.40
2024-03-03T22:15:49.767Z,10.50
2024-03-03T22:18:18.702Z,10.50
2024-03-03T22:20:45.660Z,10.50
2024-03-03T22:23:14.527Z,10.50
2024-03-03T22:25:41.884Z,10.50
2024-03-03T22:28:08.845Z,10.50
2024-03-03T22:30:35.569Z,10.50
2024-03-03T22:33:02.438Z,10.40
2024-03-03T22:35:29.229Z,10.40
2024-03-03T22:37:55.951Z,10.40
2024-03-03T22:40:22.864Z,10.30
2024-03-03T22:42:49.585Z,10.20
2024-03-03T22:45:16.343Z,10.20
2024-03-03T22:47:43.130Z,10.20
2024-03-03T22:50:10.215Z,10.20
2024-03-03T22:52:36.988Z,10.20
2024-03-03T22:55:04.043Z,10.10
2024-03-03T22:57:30.759Z,10.00
2024-03-03T22:59:57.483Z,10.10
2024-03-03T23:02:24.244Z,9.90
2024-03-03T23:04:53.006Z,9.80
2024-03-03T23:07:21.317Z,9.70
2024-03-03T23:09:48.018Z,9.70
2024-03-03T23:12:14.761Z,9.60
2024-03-03T23:14:44.492Z,9.60
2024-03-03T23:17:11.163Z,9.60
2024-03-03T23:19:38.149Z,9.50
2024-03-03T23:22:05.102Z,9.50
2024-03-03T23:24:31.891Z,9.50
2024-03-03T23:26:58.646Z,9.50
2024-03-03T23:29:25.416Z,9.40
2024-03-03T23:31:52.252Z,9.50
2024-03-03T23:34:18.968Z,9.50
2024-03-03T23:36:46.519Z,9.50
2024-03-03T23:39:13.276Z,9.50
2024-03-03T23:41:40.835Z,9.10
2024-03-03T23:44:07.554Z,9.10
2024-03-03T23:46:34.326Z,9.20
2024-03-03T23:49:01.285Z,9.20
2024-03-03T23:51:27.977Z,9.30
2024-03-03T23:53:54.651Z,9.30
2024-03-03T23:56:21.339Z,9.10
2024-03-03T23:58:48.258Z,9.10
